createdAt,value
2023-05-20T00:01:10.194Z,7.60
2023-05-20T00:03:43.062Z,8.60
2023-05-20T00:06:16.016Z,6.33
2023-05-20T00:08:49.131Z,9.27
2023-05-20T00:11:22.148Z,8.23
2023-05-20T00:13:54.952Z,7.03
2023-05-20T00:16:28.197Z,9.10
2023-05-20T00:19:02.002Z,8.47
2023-05-20T00:21:35.834Z,8.27
2023-05-20T00:24:08.895Z,7.33
2023-05-20T00:26:41.923Z,8.37
2023-05-20T00:29:14.764Z,8.73
2023-05-20T00:31:47.637Z,9.13
2023-05-20T00:34:20.484Z,7.37
2023-05-20T00:36:53.846Z,9.27
2023-05-20T00:39:26.718Z,9.90
2023-05-20T00:42:00.860Z,7.10
2023-05-20T00:44:37.942Z,8.47
2023-05-20T00:47:11.113Z,7.50
2023-05-20T00:49:44.027Z,7.60
2023-05-20T00:52:17.564Z,8.90
2023-05-20T00:54:50.806Z,6.90
2023-05-20T00:57:23.991Z,7.60
2023-05-20T00:59:57.078Z,9.40
2023-05-20T01:02:30.290Z,9.60
2023-05-20T01:05:03.710Z,8.73
2023-05-20T01:07:37.555Z,7.43
2023-05-20T01:10:11.466Z,8.00
2023-05-20T01:12:51.953Z,8.10
2023-05-20T01:15:26.671Z,8.20
2023-05-20T01:18:02.868Z,8.40
2023-05-20T01:20:36.758Z,9.67
2023-05-20T01:23:09.576Z,8.40
2023-05-20T01:25:42.693Z,8.40
2023-05-20T01:28:17.460Z,8.30
2023-05-20T01:30:51.982Z,9.60
2023-05-20T01:33:26.732Z,11.90
2023-05-20T01:36:01.287Z,10.30
2023-05-20T01:38:35.425Z,7.87
2023-05-20T01:41:09.815Z,8.87
2023-05-20T01:43:43.432Z,9.30
2023-05-20T01:46:16.460Z,11.13
2023-05-20T01:48:49.633Z,8.33
2023-05-20T01:51:22.585Z,9.43
2023-05-20T01:53:55.602Z,8.10
2023-05-20T01:56:28.669Z,9.20
2023-05-20T01:59:01.936Z,8.70
2023-05-20T02:01:35.174Z,8.67
2023-05-20T02:04:08.234Z,7.70
2023-05-20T02:06:41.177Z,9.47
2023-05-20T02:09:14.127Z,6.80
2023-05-20T02:11:47.032Z,7.07
2023-05-20T02:14:19.984Z,6.60
2023-05-20T02:16:52.769Z,6.60
2023-05-20T02:19:26.164Z,7.90
2023-05-20T02:21:59.798Z,5.30
2023-05-20T02:24:32.535Z,6.53
2023-05-20T02:27:06.722Z,6.23
2023-05-20T02:29:39.576Z,6.23
2023-05-20T02:32:13.198Z,6.77
2023-05-20T02:34:46.942Z,7.73
2023-05-20T02:37:21.131Z,8.60
2023-05-20T02:39:54.213Z,5.93
2023-05-20T02:42:27.383Z,6.07
2023-05-20T02:45:00.810Z,6.80
2023-05-20T02:47:34.134Z,6.40
2023-05-20T02:50:07.393Z,7.47
2023-05-20T02:52:41.713Z,7.83
2023-05-20T02:55:15.046Z,8.30
2023-05-20T02:57:47.961Z,7.10
2023-05-20T03:00:20.913Z,7.80
2023-05-20T03:02:53.859Z,8.57
2023-05-20T03:05:26.927Z,8.20
2023-05-20T03:07:59.895Z,11.53
2023-05-20T03:10:32.804Z,6.17
2023-05-20T03:13:05.788Z,7.13
2023-05-20T03:15:38.993Z,6.70
2023-05-20T03:18:14.711Z,6.80
2023-05-20T03:20:48.181Z,5.63
2023-05-20T03:23:21.752Z,5.20
2023-05-20T03:25:55.024Z,4.23
2023-05-20T03:28:27.891Z,5.10
2023-05-20T03:31:00.819Z,5.33
2023-05-20T03:33:35.691Z,6.83
2023-05-20T03:36:08.779Z,7.07
2023-05-20T03:38:41.636Z,6.10
2023-05-20T03:41:14.576Z,8.47
2023-05-20T03:43:49.808Z,6.50
2023-05-20T03:46:22.679Z,3.73
2023-05-20T03:48:55.522Z,4.10
2023-05-20T03:51:28.969Z,4.57
2023-05-20T03:54:02.228Z,6.93
2023-05-20T03:56:35.793Z,6.97
2023-05-20T03:59:08.714Z,9.00
2023-05-20T04:01:41.920Z,8.03
2023-05-20T04:04:15.233Z,6.73
2023-05-20T04:06:48.284Z,8.80
2023-05-20T04:09:21.691Z,10.10
2023-05-20T04:11:54.781Z,9.30
2023-05-20T04:14:27.865Z,8.20
2023-05-20T04:17:01.139Z,7.63
2023-05-20T04:19:34.038Z,9.00
2023-05-20T04:22:07.334Z,6.57
2023-05-20T04:24:40.715Z,6.50
2023-05-20T04:27:13.629Z,4.97
2023-05-20T04:29:49.853Z,6.60
2023-05-20T04:32:23.266Z,5.33
2023-05-20T04:34:57.991Z,5.20
2023-05-20T04:37:31.138Z,6.77
2023-05-20T04:40:05.141Z,6.33
2023-05-20T04:42:38.124Z,6.97
2023-05-20T04:45:11.694Z,6.50
2023-05-20T04:47:46.067Z,8.03
2023-05-20T04:50:19.162Z,7.93
2023-05-20T04:52:52.494Z,8.30
2023-05-20T04:55:26.670Z,7.40
2023-05-20T04:57:59.548Z,7.10
2023-05-20T05:00:32.420Z,7.13
2023-05-20T05:03:06.053Z,6.63
2023-05-20T05:05:42.568Z,6.70
2023-05-20T05:08:16.034Z,8.90
2023-05-20T05:10:50.286Z,4.97
2023-05-20T05:13:26.305Z,4.87
2023-05-20T05:16:05.910Z,4.40
2023-05-20T05:18:39.138Z,4.73
2023-05-20T05:21:12.192Z,4.63
2023-05-20T05:23:45.575Z,5.07
2023-05-20T05:26:18.795Z,6.80
2023-05-20T05:28:52.081Z,6.23
2023-05-20T05:31:25.522Z,7.17
2023-05-20T05:33:58.615Z,8.13
2023-05-20T05:36:31.687Z,6.03
2023-05-20T05:39:04.892Z,8.10
2023-05-20T05:41:37.999Z,6.83
2023-05-20T05:44:10.740Z,7.67
2023-05-20T05:46:44.116Z,8.30
2023-05-20T05:49:16.908Z,6.10
2023-05-20T05:51:49.861Z,8.50
2023-05-20T05:54:26.306Z,6.50
2023-05-20T05:56:59.734Z,7.47
2023-05-20T05:59:32.644Z,6.73
2023-05-20T06:02:05.768Z,6.07
2023-05-20T06:04:44.398Z,6.27
2023-05-20T06:07:29.410Z,5.00
2023-05-20T06:10:06.256Z,6.00
2023-05-20T06:12:40.223Z,6.20
2023-05-20T06:15:13.717Z,5.40
2023-05-20T06:17:46.836Z,4.87
2023-05-20T06:20:21.560Z,5.60
2023-05-20T06:22:54.572Z,5.07
2023-05-20T06:25:28.824Z,4.63
2023-05-20T06:28:01.563Z,5.70
2023-05-20T06:30:34.436Z,5.90
2023-05-20T06:33:08.016Z,6.10
2023-05-20T06:35:41.193Z,4.90
2023-05-20T06:38:14.290Z,8.60
2023-05-20T06:40:47.292Z,5.57
2023-05-20T06:43:20.609Z,6.93
2023-05-20T06:45:54.001Z,5.70
2023-05-20T06:48:27.550Z,4.47
2023-05-20T06:51:00.745Z,4.83
2023-05-20T06:53:34.083Z,3.53
2023-05-20T06:56:11.417Z,3.73
2023-05-20T06:58:44.498Z,5.17
2023-05-20T07:01:18.351Z,5.73
2023-05-20T07:03:51.861Z,4.10
2023-05-20T07:06:25.097Z,3.70
2023-05-20T07:08:58.125Z,3.80
2023-05-20T07:11:34.296Z,4.03
2023-05-20T07:14:07.316Z,3.23
2023-05-20T07:16:40.287Z,4.77
2023-05-20T07:19:13.627Z,5.00
2023-05-20T07:21:46.611Z,5.63
2023-05-20T07:24:20.551Z,4.87
2023-05-20T07:26:53.625Z,4.40
2023-05-20T07:29:26.802Z,4.40
2023-05-20T07:32:00.140Z,4.73
2023-05-20T07:34:33.377Z,5.00
2023-05-20T07:37:06.465Z,3.90
2023-05-20T07:39:39.304Z,5.93
2023-05-20T07:42:12.329Z,4.90
2023-05-20T07:44:45.544Z,3.00
2023-05-20T07:47:19.201Z,3.43
2023-05-20T07:50:15.814Z,3.03
2023-05-20T07:55:23.323Z,3.33
2023-05-20T07:57:56.350Z,4.40
2023-05-20T08:00:29.532Z,4.40
2023-05-20T08:03:03.337Z,4.27
2023-05-20T08:05:36.566Z,5.30
2023-05-20T08:08:09.545Z,6.80
2023-05-20T08:10:42.576Z,5.67
2023-05-20T08:13:19.948Z,4.50
2023-05-20T08:15:52.778Z,4.90
2023-05-20T08:18:25.902Z,4.47
2023-05-20T08:21:03.297Z,4.73
2023-05-20T08:23:38.065Z,7.07
2023-05-20T08:26:10.772Z,7.80
2023-05-20T08:28:44.648Z,4.90
2023-05-20T08:31:17.665Z,4.10
2023-05-20T08:33:50.979Z,6.60
2023-05-20T08:36:23.881Z,3.97
2023-05-20T08:38:59.919Z,4.53
2023-05-20T08:41:32.476Z,4.50
2023-05-20T08:44:06.364Z,4.80
2023-05-20T08:46:39.891Z,3.80
2023-05-20T08:49:12.893Z,5.20
2023-05-20T08:51:45.928Z,6.13
2023-05-20T08:54:20.069Z,6.13
2023-05-20T08:56:53.185Z,6.00
2023-05-20T08:59:26.772Z,4.70
2023-05-20T09:01:59.798Z,4.47
2023-05-20T09:04:32.975Z,5.30
2023-05-20T09:07:05.999Z,5.13
2023-05-20T09:09:43.564Z,3.73
2023-05-20T09:12:16.733Z,4.97
2023-05-20T09:14:49.922Z,4.30
2023-05-20T09:17:22.681Z,4.33
2023-05-20T09:19:56.877Z,3.77
2023-05-20T09:22:30.853Z,3.50
2023-05-20T09:25:03.885Z,4.10
2023-05-20T09:27:37.428Z,4.30
2023-05-20T09:30:11.703Z,4.47
2023-05-20T09:32:44.652Z,5.00
2023-05-20T09:35:21.518Z,4.53
2023-05-20T09:37:57.068Z,3.90
2023-05-20T09:40:31.494Z,4.80
2023-05-20T09:43:09.666Z,3.47
2023-05-20T09:45:42.950Z,5.40
2023-05-20T09:48:16.214Z,6.23
2023-05-20T09:50:49.179Z,4.30
2023-05-20T09:53:22.334Z,4.93
2023-05-20T09:55:55.994Z,4.70
2023-05-20T09:58:29.206Z,4.50
2023-05-20T10:01:04.412Z,4.73
2023-05-20T10:03:44.161Z,5.03
2023-05-20T10:06:18.767Z,3.97
2023-05-20T10:09:18.936Z,3.33
2023-05-20T10:11:56.573Z,4.47
2023-05-20T10:14:33.645Z,4.37
2023-05-20T10:17:19.706Z,4.27
2023-05-20T10:19:53.163Z,5.73
2023-05-20T10:22:33.736Z,4.63
2023-05-20T10:25:11.207Z,3.20
2023-05-20T10:27:57.312Z,5.43
2023-05-20T10:30:30.697Z,6.00
2023-05-20T10:33:07.305Z,5.40
2023-05-20T10:35:41.768Z,4.27
2023-05-20T10:38:15.675Z,4.60
2023-05-20T10:40:48.572Z,3.70
2023-05-20T10:43:24.015Z,4.63
2023-05-20T10:45:59.416Z,4.10
2023-05-20T10:48:36.844Z,4.20
2023-05-20T10:51:12.449Z,4.50
2023-05-20T10:53:46.994Z,4.90
2023-05-20T10:56:26.831Z,4.40
2023-05-20T10:58:59.684Z,4.97
2023-05-20T11:01:32.590Z,4.50
2023-05-20T11:04:06.227Z,4.40
2023-05-20T11:06:39.261Z,4.93
2023-05-20T11:09:12.301Z,4.57
2023-05-20T11:11:46.088Z,4.03
2023-05-20T11:14:20.340Z,3.60
2023-05-20T11:16:56.917Z,5.03
2023-05-20T11:19:33.782Z,4.57
2023-05-20T11:22:06.644Z,4.20
2023-05-20T11:24:39.460Z,4.57
2023-05-20T11:27:12.658Z,3.70
2023-05-20T11:29:46.254Z,4.67
2023-05-20T11:32:23.854Z,4.80
2023-05-20T11:34:57.037Z,5.07
2023-05-20T11:37:30.385Z,4.80
2023-05-20T11:40:13.319Z,5.00
2023-05-20T11:42:48.205Z,5.33
2023-05-20T11:45:21.093Z,4.73
2023-05-20T11:48:07.254Z,4.27
2023-05-20T11:50:44.965Z,4.17
2023-05-20T11:53:25.470Z,4.23
2023-05-20T11:55:59.878Z,4.80
2023-05-20T11:58:34.020Z,6.30
2023-05-20T12:01:20.878Z,4.77
2023-05-20T12:03:41.245Z,4.60
2023-05-20T12:06:16.549Z,4.53
2023-05-20T12:08:49.671Z,5.13
2023-05-20T12:11:28.128Z,3.73
2023-05-20T12:14:01.095Z,4.70
2023-05-20T12:16:35.241Z,4.43
2023-05-20T12:19:09.079Z,3.97
2023-05-20T12:21:42.138Z,5.30
2023-05-20T12:24:14.981Z,5.23
2023-05-20T12:26:47.992Z,4.93
2023-05-20T12:29:21.015Z,5.87
2023-05-20T12:31:54.494Z,4.13
2023-05-20T12:34:27.611Z,4.60
2023-05-20T12:37:00.530Z,3.80
2023-05-20T12:39:33.395Z,4.53
2023-05-20T12:42:06.285Z,4.23
2023-05-20T12:44:39.607Z,5.27
2023-05-20T12:47:12.755Z,5.77
2023-05-20T12:49:45.880Z,6.07
2023-05-20T12:52:22.413Z,4.80
2023-05-20T12:54:53.389Z,4.37
2023-05-20T12:57:26.455Z,5.40
2023-05-20T12:59:59.702Z,4.43
2023-05-20T13:02:33.000Z,4.70
2023-05-20T13:05:05.970Z,4.77
2023-05-20T13:07:38.898Z,4.63
2023-05-20T13:10:12.766Z,3.77
2023-05-20T13:12:48.162Z,4.43
2023-05-20T13:15:21.665Z,6.10
2023-05-20T13:17:54.690Z,4.03
2023-05-20T13:20:27.996Z,5.40
2023-05-20T13:23:04.123Z,4.40
2023-05-20T13:25:37.050Z,5.07
2023-05-20T13:28:10.442Z,4.53
2023-05-20T13:30:43.661Z,4.70
2023-05-20T13:33:17.172Z,5.10
2023-05-20T13:35:50.093Z,4.97
2023-05-20T13:38:22.998Z,5.17
2023-05-20T13:40:55.875Z,4.33
2023-05-20T13:43:30.196Z,5.53
2023-05-20T13:46:03.313Z,3.77
2023-05-20T13:48:36.263Z,4.20
2023-05-20T13:51:09.416Z,5.30
2023-05-20T13:53:42.449Z,4.37
2023-05-20T13:56:19.745Z,4.20
2023-05-20T13:58:52.685Z,4.53
2023-05-20T14:01:25.686Z,5.40
2023-05-20T14:03:58.791Z,4.73
2023-05-20T14:06:33.218Z,4.30
2023-05-20T14:09:05.937Z,4.50
2023-05-20T14:11:38.612Z,4.17
2023-05-20T14:14:11.663Z,6.70
2023-05-20T14:16:44.481Z,5.17
2023-05-20T14:19:17.681Z,4.57
2023-05-20T14:21:50.884Z,3.90
2023-05-20T14:24:24.072Z,4.07
2023-05-20T14:26:56.848Z,3.90
2023-05-20T14:29:29.699Z,4.23
2023-05-20T14:32:03.253Z,3.87
2023-05-20T14:34:36.707Z,4.60
2023-05-20T14:37:11.000Z,4.20
2023-05-20T14:39:54.853Z,3.97
2023-05-20T14:42:27.783Z,4.80
2023-05-20T14:45:00.757Z,4.00
2023-05-20T14:47:33.651Z,4.20
2023-05-20T14:50:06.498Z,5.10
2023-05-20T14:52:39.167Z,4.80
2023-05-20T14:55:12.338Z,3.77
2023-05-20T14:57:45.264Z,4.70
2023-05-20T15:00:19.268Z,4.73
2023-05-20T15:02:52.494Z,4.73
2023-05-20T15:05:25.269Z,4.97
2023-05-20T15:07:58.360Z,4.30
2023-05-20T15:10:54.687Z,3.50
2023-05-20T15:13:27.723Z,4.33
2023-05-20T15:16:00.887Z,4.30
2023-05-20T15:18:33.814Z,4.10
2023-05-20T15:21:06.881Z,5.70
2023-05-20T15:23:39.681Z,5.20
2023-05-20T15:26:13.996Z,7.53
2023-05-20T15:28:46.796Z,5.00
2023-05-20T15:31:19.630Z,4.17
2023-05-20T15:33:53.333Z,4.20
2023-05-20T15:36:27.307Z,3.73
2023-05-20T15:39:00.118Z,5.63
2023-05-20T15:41:34.225Z,4.43
2023-05-20T15:44:07.127Z,3.60
2023-05-20T15:46:40.116Z,4.50
2023-05-20T15:49:13.535Z,4.20
2023-05-20T15:51:52.185Z,5.90
2023-05-20T15:54:29.657Z,4.33
2023-05-20T15:57:02.515Z,3.80
2023-05-20T15:59:35.218Z,5.60
2023-05-20T16:02:08.176Z,3.63
2023-05-20T16:04:41.028Z,3.60
2023-05-20T16:07:13.912Z,5.00
2023-05-20T16:09:46.908Z,4.97
2023-05-20T16:12:20.216Z,4.40
2023-05-20T16:14:53.334Z,6.27
2023-05-20T16:17:28.839Z,4.33
2023-05-20T16:20:01.873Z,5.40
2023-05-20T16:22:37.345Z,3.90
2023-05-20T16:25:10.882Z,5.30
2023-05-20T16:28:04.030Z,3.97
2023-05-20T16:30:39.087Z,4.67
2023-05-20T16:33:12.513Z,4.43
2023-05-20T16:35:45.675Z,4.70
2023-05-20T16:38:18.836Z,4.07
2023-05-20T16:40:51.805Z,4.37
2023-05-20T16:43:24.766Z,6.37
2023-05-20T16:45:58.252Z,3.87
2023-05-20T16:48:31.110Z,5.57
2023-05-20T16:51:07.239Z,4.70
2023-05-20T16:53:40.071Z,4.30
2023-05-20T16:56:13.202Z,3.47
2023-05-20T16:58:46.567Z,5.00
2023-05-20T17:01:19.450Z,4.83
2023-05-20T17:03:52.366Z,3.20
2023-05-20T17:06:28.196Z,3.37
2023-05-20T17:09:01.499Z,4.40
2023-05-20T17:11:34.388Z,3.87
2023-05-20T17:14:07.131Z,4.30
2023-05-20T17:16:40.347Z,3.67
2023-05-20T17:19:13.320Z,4.80
2023-05-20T17:21:46.402Z,4.07
2023-05-20T17:24:19.427Z,4.73
2023-05-20T17:26:52.599Z,4.00
2023-05-20T17:29:25.484Z,4.10
2023-05-20T17:31:58.834Z,4.10
2023-05-20T17:34:32.217Z,4.13
2023-05-20T17:37:04.873Z,4.50
2023-05-20T17:39:40.327Z,4.80
2023-05-20T17:42:16.824Z,3.90
2023-05-20T17:44:49.782Z,3.43
2023-05-20T17:47:22.966Z,4.50
2023-05-20T17:49:56.339Z,3.30
2023-05-20T17:52:29.324Z,3.90
2023-05-20T17:55:02.214Z,3.30
2023-05-20T17:57:35.153Z,3.87
2023-05-20T18:00:08.446Z,3.83
2023-05-20T18:02:42.987Z,3.27
2023-05-20T18:05:16.082Z,3.33
2023-05-20T18:07:48.985Z,3.90
2023-05-20T18:10:27.101Z,3.20
2023-05-20T18:13:04.076Z,2.70
2023-05-20T18:15:37.066Z,2.20
2023-05-20T18:18:10.610Z,2.93
2023-05-20T18:20:43.464Z,3.40
2023-05-20T18:23:16.522Z,2.83
2023-05-20T18:25:50.042Z,2.93
2023-05-20T18:28:23.198Z,4.83
2023-05-20T18:30:57.479Z,3.27
2023-05-20T18:33:30.406Z,4.33
2023-05-20T18:36:03.410Z,3.87
2023-05-20T18:38:37.080Z,4.03
2023-05-20T18:41:10.378Z,2.90
2023-05-20T18:43:44.843Z,2.73
2023-05-20T18:46:17.883Z,5.83
2023-05-20T18:48:50.855Z,2.73
2023-05-20T18:51:23.791Z,2.70
2023-05-20T18:53:56.644Z,3.03
2023-05-20T18:56:29.597Z,2.30
2023-05-20T18:59:02.763Z,3.07
2023-05-20T19:01:41.389Z,2.70
2023-05-20T19:04:14.201Z,3.10
2023-05-20T19:06:47.236Z,3.20
2023-05-20T19:09:20.085Z,3.03
2023-05-20T19:11:54.228Z,2.80
2023-05-20T19:14:31.419Z,3.50
2023-05-20T19:17:05.108Z,3.17
2023-05-20T19:19:38.231Z,2.90
2023-05-20T19:22:13.830Z,4.40
2023-05-20T19:24:46.826Z,3.07
2023-05-20T19:27:19.924Z,2.77
2023-05-20T19:29:52.935Z,2.80
2023-05-20T19:32:26.028Z,3.20
2023-05-20T19:34:58.671Z,2.60
2023-05-20T19:37:32.249Z,2.80
2023-05-20T19:40:11.663Z,2.10
2023-05-20T19:42:44.727Z,4.57
2023-05-20T19:45:18.009Z,2.77
2023-05-20T19:47:50.751Z,2.17
2023-05-20T19:50:23.881Z,2.60
2023-05-20T19:52:56.726Z,2.30
2023-05-20T19:55:33.864Z,1.73
2023-05-20T19:58:06.989Z,2.57
2023-05-20T20:00:40.035Z,2.57
2023-05-20T20:03:13.288Z,1.80
2023-05-20T20:05:51.846Z,2.20
2023-05-20T20:08:24.772Z,2.30
2023-05-20T20:10:58.018Z,2.30
2023-05-20T20:13:31.035Z,2.10
2023-05-20T20:16:07.950Z,2.43
2023-05-20T20:18:40.902Z,2.63
2023-05-20T20:21:13.673Z,2.30
2023-05-20T20:23:46.600Z,2.57
2023-05-20T20:26:19.458Z,2.43
2023-05-20T20:28:52.267Z,3.17
2023-05-20T20:31:25.390Z,2.50
2023-05-20T20:33:59.379Z,2.67
2023-05-20T20:36:33.737Z,3.10
2023-05-20T20:39:07.660Z,2.90
2023-05-20T20:41:40.670Z,3.43
2023-05-20T20:44:15.168Z,3.53
2023-05-20T20:46:48.625Z,3.20
2023-05-20T20:49:22.556Z,3.20
2023-05-20T20:51:56.175Z,3.50
2023-05-20T20:54:31.641Z,4.27
2023-05-20T20:57:04.832Z,4.30
2023-05-20T20:59:37.658Z,3.53
2023-05-20T21:02:10.975Z,4.07
2023-05-20T21:04:44.695Z,4.60
2023-05-20T21:07:18.782Z,4.33
2023-05-20T21:09:52.815Z,4.60
2023-05-20T21:12:25.744Z,3.40
2023-05-20T21:14:59.295Z,3.80
2023-05-20T21:17:32.653Z,4.20
2023-05-20T21:20:20.186Z,4.13
2023-05-20T21:22:51.676Z,4.07
2023-05-20T21:25:24.571Z,3.90
2023-05-20T21:27:57.464Z,3.97
2023-05-20T21:30:49.010Z,4.77
2023-05-20T21:33:22.532Z,3.27
2023-05-20T21:35:55.930Z,3.33
2023-05-20T21:38:29.109Z,4.30
2023-05-20T21:41:03.098Z,4.33
2023-05-20T21:43:36.167Z,4.27
2023-05-20T21:46:09.735Z,3.90
2023-05-20T21:48:42.664Z,2.87
2023-05-20T21:51:15.512Z,3.20
2023-05-20T21:53:48.339Z,3.77
2023-05-20T21:56:21.205Z,3.73
2023-05-20T21:58:54.047Z,4.00
2023-05-20T22:01:27.029Z,3.80
2023-05-20T22:07:15.011Z,3.63
2023-05-20T22:09:48.208Z,3.90
2023-05-20T22:12:22.376Z,3.87
2023-05-20T22:14:55.383Z,4.07
2023-05-20T22:17:28.802Z,4.20
2023-05-20T22:20:02.034Z,3.80
2023-05-20T22:22:36.148Z,5.10
2023-05-20T22:25:09.715Z,5.80
2023-05-20T22:27:43.728Z,5.40
2023-05-20T22:30:17.038Z,6.20
2023-05-20T22:32:50.201Z,5.83
2023-05-20T22:35:24.821Z,6.23
2023-05-20T22:37:59.119Z,6.30
2023-05-20T22:40:32.316Z,6.03
2023-05-20T22:43:05.372Z,6.47
2023-05-20T22:45:38.516Z,6.87
2023-05-20T22:48:11.725Z,6.23
2023-05-20T22:50:44.633Z,5.00
2023-05-20T22:53:17.760Z,6.10
2023-05-20T22:55:51.028Z,5.33
2023-05-20T22:59:50.834Z,3.87
2023-05-20T23:01:30.197Z,27.27
2023-05-20T23:04:03.114Z,8.17
2023-05-20T23:06:37.314Z,5.30
2023-05-20T23:09:10.493Z,7.50
2023-05-20T23:11:43.223Z,5.10
2023-05-20T23:14:16.115Z,4.57
2023-05-20T23:16:48.956Z,4.90
2023-05-20T23:19:21.871Z,5.77
2023-05-20T23:21:54.785Z,5.33
2023-05-20T23:24:28.027Z,6.03
2023-05-20T23:27:01.146Z,5.23
2023-05-20T23:29:33.951Z,5.50
2023-05-20T23:32:07.148Z,5.03
2023-05-20T23:34:40.115Z,6.10
2023-05-20T23:37:13.034Z,5.40
2023-05-20T23:39:46.574Z,11.00
2023-05-20T23:42:19.408Z,4.10
2023-05-20T23:44:52.395Z,4.03
2023-05-20T23:47:26.894Z,3.10
2023-05-20T23:50:00.193Z,2.73
2023-05-20T23:52:33.017Z,2.93
2023-05-20T23:55:06.052Z,2.80
2023-05-20T23:57:38.962Z,2.90
